createdAt,value
2018-05-24T00:01:27.316Z,17.90
2018-05-24T00:03:55.024Z,17.90
2018-05-24T00:06:22.640Z,17.90
2018-05-24T00:08:50.242Z,17.90
2018-05-24T00:11:17.907Z,17.80
2018-05-24T00:13:45.716Z,17.80
2018-05-24T00:16:13.432Z,17.70
2018-05-24T00:18:41.039Z,17.70
2018-05-24T00:21:08.722Z,17.70
2018-05-24T00:23:36.438Z,17.60
2018-05-24T00:26:04.043Z,17.60
2018-05-24T00:28:31.763Z,17.60
2018-05-24T00:30:59.358Z,17.60
2018-05-24T00:33:27.090Z,17.60
2018-05-24T00:35:54.673Z,17.60
2018-05-24T00:38:23.319Z,17.50
2018-05-24T00:40:50.927Z,17.50
2018-05-24T00:43:18.600Z,17.50
2018-05-24T00:45:46.197Z,17.50
2018-05-24T00:48:14.171Z,17.60
2018-05-24T00:50:41.851Z,17.50
2018-05-24T00:53:09.468Z,17.50
2018-05-24T00:55:41.775Z,17.40
2018-05-24T00:58:09.551Z,17.40
2018-05-24T01:00:37.190Z,17.30
2018-05-24T01:03:04.810Z,17.40
2018-05-24T01:05:33.402Z,17.30
2018-05-24T01:08:01.133Z,17.30
2018-05-24T01:10:28.766Z,17.20
2018-05-24T01:12:57.224Z,17.20
2018-05-24T01:15:24.867Z,17.20
2018-05-24T01:17:52.566Z,17.20
2018-05-24T01:20:20.197Z,17.10
2018-05-24T01:22:47.879Z,17.10
2018-05-24T01:25:15.495Z,17.10
2018-05-24T01:27:43.091Z,17.10
2018-05-24T01:30:10.732Z,17.10
2018-05-24T01:32:39.306Z,17.10
2018-05-24T01:35:07.095Z,17.10
2018-05-24T01:37:46.574Z,17.10
2018-05-24T01:40:14.234Z,17.00
2018-05-24T01:42:41.865Z,17.00
2018-05-24T01:45:09.476Z,17.00
2018-05-24T01:47:37.104Z,17.00
2018-05-24T01:50:04.789Z,17.00
2018-05-24T01:52:32.426Z,17.00
2018-05-24T01:55:00.083Z,17.00
2018-05-24T01:57:27.715Z,17.00
2018-05-24T01:59:55.457Z,17.00
2018-05-24T02:02:23.213Z,17.00
2018-05-24T02:04:50.827Z,16.90
2018-05-24T02:07:19.497Z,16.90
2018-05-24T02:09:47.107Z,17.00
2018-05-24T02:12:14.885Z,17.00
2018-05-24T02:14:42.438Z,17.00
2018-05-24T02:17:10.331Z,17.00
2018-05-24T02:19:38.026Z,17.00
2018-05-24T02:22:05.755Z,17.00
2018-05-24T02:24:33.437Z,17.10
2018-05-24T02:27:01.184Z,17.10
2018-05-24T02:29:28.876Z,17.00
2018-05-24T02:31:57.410Z,17.10
2018-05-24T02:34:25.055Z,17.10
2018-05-24T02:36:52.695Z,17.10
2018-05-24T02:39:20.364Z,17.00
2018-05-24T02:41:47.961Z,17.00
2018-05-24T02:44:15.545Z,17.00
2018-05-24T02:46:43.130Z,17.00
2018-05-24T02:49:11.711Z,17.00
2018-05-24T02:51:39.345Z,16.90
2018-05-24T02:54:06.939Z,17.00
2018-05-24T02:56:34.601Z,16.80
2018-05-24T02:59:04.523Z,16.80
2018-05-24T03:01:32.165Z,16.80
2018-05-24T03:03:59.806Z,16.80
2018-05-24T03:06:27.392Z,16.80
2018-05-24T03:08:55.220Z,16.80
2018-05-24T03:11:22.977Z,16.90
2018-05-24T03:13:50.556Z,16.90
2018-05-24T03:16:18.229Z,16.90
2018-05-24T03:18:46.015Z,17.00
2018-05-24T03:21:14.602Z,17.00
2018-05-24T03:23:42.228Z,17.00
2018-05-24T03:26:09.822Z,17.00
2018-05-24T03:28:37.560Z,17.00
2018-05-24T03:31:05.203Z,17.00
2018-05-24T03:33:32.792Z,17.00
2018-05-24T03:36:00.708Z,17.10
2018-05-24T03:38:28.360Z,17.10
2018-05-24T03:40:56.034Z,17.10
2018-05-24T03:43:24.678Z,17.10
2018-05-24T03:45:52.391Z,17.10
2018-05-24T03:48:20.122Z,17.10
2018-05-24T03:50:47.726Z,17.10
2018-05-24T03:53:15.331Z,17.10
2018-05-24T03:55:42.967Z,17.20
2018-05-24T03:58:11.389Z,17.20
2018-05-24T04:03:48.026Z,17.20
2018-05-24T04:06:15.648Z,17.20
2018-05-24T04:08:43.290Z,17.30
2018-05-24T04:11:11.073Z,17.20
2018-05-24T04:13:38.707Z,17.20
2018-05-24T04:16:07.475Z,17.20
2018-05-24T04:18:35.176Z,17.30
2018-05-24T04:21:04.601Z,17.20
2018-05-24T04:23:32.957Z,17.30
2018-05-24T04:26:00.639Z,17.20
2018-05-24T04:28:28.433Z,17.30
2018-05-24T04:30:56.127Z,17.30
2018-05-24T04:33:24.588Z,17.40
2018-05-24T04:35:53.126Z,17.40
2018-05-24T04:38:21.966Z,17.40
2018-05-24T04:40:49.554Z,17.40
2018-05-24T04:43:18.016Z,17.50
2018-05-24T04:45:45.649Z,17.40
2018-05-24T04:48:13.305Z,17.50
2018-05-24T04:50:41.058Z,17.50
2018-05-24T04:53:09.784Z,17.70
2018-05-24T04:55:37.463Z,17.70
2018-05-24T04:58:07.135Z,17.70
2018-05-24T05:00:34.850Z,17.80
2018-05-24T05:03:06.478Z,17.70
2018-05-24T05:05:34.143Z,17.80
2018-05-24T05:08:05.269Z,17.80
2018-05-24T05:10:32.970Z,17.90
2018-05-24T05:13:00.620Z,17.90
2018-05-24T05:15:29.800Z,18.00
2018-05-24T05:17:57.439Z,17.90
2018-05-24T05:20:25.216Z,17.90
2018-05-24T05:22:52.883Z,18.00
2018-05-24T05:25:21.445Z,18.00
2018-05-24T05:27:49.228Z,18.00
2018-05-24T05:30:17.660Z,18.10
2018-05-24T05:32:45.346Z,18.00
2018-05-24T05:35:13.148Z,18.10
2018-05-24T05:37:41.602Z,18.20
2018-05-24T05:40:09.355Z,18.20
2018-05-24T05:42:37.552Z,18.20
2018-05-24T05:45:05.208Z,18.20
2018-05-24T05:47:33.628Z,18.20
2018-05-24T05:50:02.164Z,18.30
2018-05-24T05:52:29.806Z,18.30
2018-05-24T05:54:57.511Z,18.20
2018-05-24T05:57:25.870Z,18.30
2018-05-24T05:59:53.587Z,18.30
2018-05-24T06:02:22.694Z,18.40
2018-05-24T06:04:51.480Z,18.40
2018-05-24T06:07:20.631Z,18.40
2018-05-24T06:09:48.265Z,18.40
2018-05-24T06:12:16.036Z,18.40
2018-05-24T06:14:43.741Z,18.40
2018-05-24T06:17:11.555Z,18.40
2018-05-24T06:19:40.099Z,18.40
2018-05-24T06:22:08.075Z,18.40
2018-05-24T06:24:35.687Z,18.50
2018-05-24T06:27:03.356Z,18.40
2018-05-24T06:29:31.213Z,18.50
2018-05-24T06:31:58.900Z,18.50
2018-05-24T06:34:26.698Z,18.50
2018-05-24T06:36:54.541Z,18.60
2018-05-24T06:39:22.356Z,18.60
2018-05-24T06:41:50.272Z,18.50
2018-05-24T06:44:18.008Z,18.60
2018-05-24T06:46:46.572Z,18.60
2018-05-24T06:49:14.381Z,18.60
2018-05-24T06:51:42.105Z,18.60
2018-05-24T06:54:09.862Z,18.60
2018-05-24T06:56:37.648Z,18.60
2018-05-24T06:59:06.524Z,18.60
2018-05-24T07:01:34.353Z,18.60
2018-05-24T07:04:02.200Z,18.60
2018-05-24T07:06:29.901Z,18.70
2018-05-24T07:08:57.689Z,18.70
2018-05-24T07:11:25.369Z,18.80
2018-05-24T07:13:56.102Z,18.80
2018-05-24T07:16:23.885Z,18.80
2018-05-24T07:18:51.618Z,18.80
2018-05-24T07:21:19.355Z,18.90
2018-05-24T07:23:46.958Z,18.90
2018-05-24T07:26:15.877Z,18.80
2018-05-24T07:28:44.988Z,18.80
2018-05-24T07:31:13.149Z,18.80
2018-05-24T07:33:41.000Z,18.80
2018-05-24T07:36:09.680Z,18.90
2018-05-24T07:38:37.348Z,18.90
2018-05-24T07:41:06.027Z,18.80
2018-05-24T07:43:34.521Z,18.80
2018-05-24T07:46:02.154Z,18.80
2018-05-24T07:48:30.473Z,18.80
2018-05-24T07:50:58.202Z,18.80
2018-05-24T07:53:27.233Z,18.80
2018-05-24T07:55:55.871Z,18.80
2018-05-24T07:58:23.575Z,18.70
2018-05-24T08:00:51.211Z,18.80
2018-05-24T08:03:18.876Z,18.90
2018-05-24T08:05:47.058Z,18.90
2018-05-24T08:08:15.524Z,18.90
2018-05-24T08:10:43.277Z,19.00
2018-05-24T08:13:10.955Z,19.00
2018-05-24T08:15:38.788Z,19.10
2018-05-24T08:18:06.429Z,19.20
2018-05-24T08:20:34.032Z,19.20
2018-05-24T08:23:02.768Z,19.30
2018-05-24T08:25:30.490Z,19.40
2018-05-24T08:27:58.220Z,19.40
2018-05-24T08:30:25.941Z,19.40
2018-05-24T08:32:54.572Z,19.50
2018-05-24T08:35:22.237Z,19.50
2018-05-24T08:37:51.397Z,19.60
2018-05-24T08:40:19.030Z,19.60
2018-05-24T08:42:46.931Z,19.50
2018-05-24T08:45:14.800Z,19.50
2018-05-24T08:47:43.076Z,19.50
2018-05-24T08:50:11.992Z,19.50
2018-05-24T08:52:41.690Z,19.50
2018-05-24T08:55:09.270Z,19.50
2018-05-24T08:57:37.052Z,19.60
2018-05-24T09:00:04.756Z,19.60
2018-05-24T09:02:32.642Z,19.50
2018-05-24T09:05:00.445Z,19.60
2018-05-24T09:07:28.139Z,19.60
2018-05-24T09:09:55.801Z,19.60
2018-05-24T09:12:23.457Z,19.60
2018-05-24T09:14:51.132Z,19.70
2018-05-24T09:17:18.743Z,19.70
2018-05-24T09:19:46.459Z,19.70
2018-05-24T09:22:14.228Z,19.80
2018-05-24T09:24:41.935Z,19.90
2018-05-24T09:27:09.649Z,19.90
2018-05-24T09:29:37.302Z,20.20
2018-05-24T09:32:05.099Z,20.20
2018-05-24T09:34:33.657Z,20.10
2018-05-24T09:37:01.421Z,19.70
2018-05-24T09:39:29.172Z,19.90
2018-05-24T09:41:56.832Z,19.80
2018-05-24T09:44:24.955Z,19.80
2018-05-24T09:46:53.027Z,20.00
2018-05-24T09:49:20.735Z,20.20
2018-05-24T09:51:48.401Z,20.40
2018-05-24T09:54:16.080Z,20.50
2018-05-24T09:56:43.686Z,20.70
2018-05-24T09:59:11.620Z,20.80
2018-05-24T10:01:39.299Z,20.70
2018-05-24T10:04:07.039Z,20.60
2018-05-24T10:06:34.725Z,20.80
2018-05-24T10:09:02.864Z,20.80
2018-05-24T10:11:30.512Z,21.00
2018-05-24T10:13:58.297Z,21.00
2018-05-24T10:16:26.931Z,20.70
2018-05-24T10:18:54.483Z,20.60
2018-05-24T10:21:22.117Z,20.80
2018-05-24T10:23:49.775Z,21.00
2018-05-24T10:26:17.483Z,21.00
2018-05-24T10:28:45.253Z,20.90
2018-05-24T10:31:13.996Z,20.70
2018-05-24T10:33:41.683Z,20.40
2018-05-24T10:36:09.320Z,20.60
2018-05-24T10:38:36.966Z,20.70
2018-05-24T10:41:04.729Z,20.90
2018-05-24T10:43:32.541Z,21.10
2018-05-24T10:46:00.148Z,21.30
2018-05-24T10:48:27.844Z,21.40
2018-05-24T10:50:55.678Z,21.60
2018-05-24T10:53:23.376Z,21.60
2018-05-24T10:55:51.088Z,21.60
2018-05-24T10:58:18.881Z,21.60
2018-05-24T11:00:46.836Z,21.70
2018-05-24T11:03:14.652Z,21.90
2018-05-24T11:05:43.977Z,22.00
2018-05-24T11:08:11.731Z,22.20
2018-05-24T11:10:39.410Z,22.30
2018-05-24T11:13:07.147Z,22.30
2018-05-24T11:15:34.764Z,22.20
2018-05-24T11:18:02.539Z,22.30
2018-05-24T11:20:30.359Z,22.30
2018-05-24T11:22:58.061Z,22.40
2018-05-24T11:25:26.485Z,22.60
2018-05-24T11:27:54.468Z,22.70
2018-05-24T11:30:22.438Z,22.90
2018-05-24T11:32:53.069Z,22.80
2018-05-24T11:35:21.731Z,22.80
2018-05-24T11:37:49.426Z,22.90
2018-05-24T11:40:17.685Z,23.00
2018-05-24T11:42:45.868Z,23.00
2018-05-24T11:45:13.595Z,23.10
2018-05-24T11:47:41.354Z,23.10
2018-05-24T11:50:09.938Z,23.00
2018-05-24T11:52:37.995Z,22.70
2018-05-24T11:55:05.687Z,22.70
2018-05-24T11:57:33.700Z,22.50
2018-05-24T12:00:01.291Z,22.50
2018-05-24T12:02:29.062Z,22.50
2018-05-24T12:04:56.755Z,22.30
2018-05-24T12:07:24.495Z,22.10
2018-05-24T12:09:53.075Z,22.10
2018-05-24T12:12:21.105Z,22.20
2018-05-24T12:14:48.719Z,22.40
2018-05-24T12:17:16.392Z,22.60
2018-05-24T12:19:44.055Z,22.80
2018-05-24T12:22:11.733Z,22.60
2018-05-24T12:24:39.655Z,22.70
2018-05-24T12:27:07.366Z,22.60
2018-05-24T12:29:34.969Z,22.60
2018-05-24T12:32:04.126Z,22.60
2018-05-24T12:34:32.048Z,22.60
2018-05-24T12:36:59.732Z,22.70
2018-05-24T12:39:27.426Z,22.80
2018-05-24T12:41:55.221Z,22.70
2018-05-24T12:44:22.948Z,22.80
2018-05-24T12:46:50.633Z,22.80
2018-05-24T12:49:18.353Z,23.00
2018-05-24T12:51:46.479Z,22.90
2018-05-24T12:54:14.130Z,23.00
2018-05-24T12:56:41.898Z,23.00
2018-05-24T12:59:09.726Z,23.00
2018-05-24T13:01:37.477Z,23.10
2018-05-24T13:04:05.234Z,23.20
2018-05-24T13:06:33.271Z,23.30
2018-05-24T13:09:01.690Z,23.30
2018-05-24T13:11:29.385Z,23.30
2018-05-24T13:13:57.241Z,23.20
2018-05-24T13:16:24.957Z,23.10
2018-05-24T13:18:52.754Z,23.00
2018-05-24T13:21:20.431Z,23.10
2018-05-24T13:23:48.127Z,23.20
2018-05-24T13:26:15.761Z,23.20
2018-05-24T13:28:43.412Z,23.10
2018-05-24T13:31:11.375Z,23.00
2018-05-24T13:33:39.063Z,23.10
2018-05-24T13:36:06.863Z,23.20
2018-05-24T13:38:34.687Z,23.30
2018-05-24T13:41:02.502Z,23.30
2018-05-24T13:43:30.522Z,23.20
2018-05-24T13:45:58.189Z,23.30
2018-05-24T13:48:25.829Z,23.50
2018-05-24T13:50:53.539Z,23.70
2018-05-24T13:53:21.490Z,23.70
2018-05-24T13:55:49.333Z,23.80
2018-05-24T13:58:17.221Z,23.70
2018-05-24T14:00:44.930Z,23.70
2018-05-24T14:03:12.779Z,23.70
2018-05-24T14:05:40.710Z,23.70
2018-05-24T14:08:08.466Z,23.70
2018-05-24T14:10:36.244Z,23.60
2018-05-24T14:13:04.684Z,23.70
2018-05-24T14:15:32.439Z,23.60
2018-05-24T14:18:00.160Z,23.50
2018-05-24T14:20:28.032Z,23.30
2018-05-24T14:22:55.999Z,23.30
2018-05-24T14:25:25.161Z,23.20
2018-05-24T14:27:53.286Z,23.20
2018-05-24T14:30:21.113Z,23.20
2018-05-24T14:32:48.999Z,23.20
2018-05-24T14:35:16.886Z,23.20
2018-05-24T14:37:45.055Z,23.20
2018-05-24T14:40:13.013Z,23.30
2018-05-24T14:42:41.632Z,23.30
2018-05-24T14:45:09.580Z,23.30
2018-05-24T14:47:37.582Z,23.30
2018-05-24T14:50:05.378Z,23.20
2018-05-24T14:52:33.503Z,23.10
2018-05-24T14:55:02.246Z,23.10
2018-05-24T14:57:30.756Z,23.10
2018-05-24T14:59:58.727Z,23.10
2018-05-24T15:02:26.521Z,23.10
2018-05-24T15:04:54.480Z,23.10
2018-05-24T15:07:24.487Z,23.10
2018-05-24T15:09:52.677Z,23.10
2018-05-24T15:12:20.833Z,23.20
2018-05-24T15:14:48.911Z,23.20
2018-05-24T15:17:16.521Z,23.20
2018-05-24T15:19:44.239Z,23.30
2018-05-24T15:22:12.376Z,23.40
2018-05-24T15:24:40.019Z,23.50
2018-05-24T15:27:07.714Z,23.60
2018-05-24T15:29:35.368Z,23.60
2018-05-24T15:32:05.364Z,23.60
2018-05-24T15:34:34.163Z,23.50
2018-05-24T15:37:01.838Z,23.60
2018-05-24T15:39:29.707Z,23.50
2018-05-24T15:41:57.465Z,23.30
2018-05-24T15:44:25.876Z,23.20
2018-05-24T15:46:53.617Z,23.00
2018-05-24T15:49:21.605Z,22.90
2018-05-24T15:51:49.292Z,22.90
2018-05-24T15:54:17.845Z,22.90
2018-05-24T15:56:48.392Z,22.80
2018-05-24T15:59:17.163Z,22.80
2018-05-24T16:01:44.950Z,22.70
2018-05-24T16:04:12.626Z,22.60
2018-05-24T16:06:40.520Z,22.70
2018-05-24T16:09:08.209Z,22.70
2018-05-24T16:11:35.929Z,22.80
2018-05-24T16:14:03.619Z,22.70
2018-05-24T16:16:32.424Z,22.70
2018-05-24T16:19:01.698Z,22.60
2018-05-24T16:21:29.473Z,22.60
2018-05-24T16:23:57.348Z,22.60
2018-05-24T16:26:24.978Z,22.50
2018-05-24T16:28:53.211Z,22.60
2018-05-24T16:31:21.076Z,22.50
2018-05-24T16:33:48.787Z,22.60
2018-05-24T16:36:17.327Z,22.60
2018-05-24T16:38:44.935Z,22.50
2018-05-24T16:41:12.608Z,22.60
2018-05-24T16:43:40.313Z,22.60
2018-05-24T16:46:08.001Z,22.70
2018-05-24T16:48:36.302Z,22.70
2018-05-24T16:51:04.857Z,22.60
2018-05-24T16:53:32.572Z,22.50
2018-05-24T16:56:01.231Z,22.50
2018-05-24T16:58:28.833Z,22.50
2018-05-24T17:00:56.480Z,22.40
2018-05-24T17:03:24.151Z,22.40
2018-05-24T17:05:51.899Z,22.40
2018-05-24T17:08:20.551Z,22.40
2018-05-24T17:10:48.181Z,22.30
2018-05-24T17:13:15.814Z,22.20
2018-05-24T17:15:45.861Z,22.20
2018-05-24T17:18:13.502Z,22.10
2018-05-24T17:20:41.190Z,22.10
2018-05-24T17:23:08.956Z,22.10
2018-05-24T17:25:36.750Z,22.20
2018-05-24T17:28:04.617Z,22.10
2018-05-24T17:30:33.215Z,22.00
2018-05-24T17:33:00.804Z,22.00
2018-05-24T17:35:29.561Z,21.90
2018-05-24T17:37:57.276Z,21.90
2018-05-24T17:40:24.940Z,21.90
2018-05-24T17:42:52.583Z,22.00
2018-05-24T17:45:20.154Z,21.90
2018-05-24T17:47:48.142Z,21.70
2018-05-24T17:50:15.721Z,21.80
2018-05-24T17:52:43.541Z,21.70
2018-05-24T17:55:11.208Z,21.70
2018-05-24T17:57:39.032Z,21.70
2018-05-24T18:00:10.338Z,21.70
2018-05-24T18:02:38.254Z,21.60
2018-05-24T18:05:06.016Z,21.60
2018-05-24T18:07:33.716Z,21.50
2018-05-24T18:10:02.008Z,21.50
2018-05-24T18:12:29.747Z,21.50
2018-05-24T18:14:57.732Z,21.40
2018-05-24T18:17:25.360Z,21.50
2018-05-24T18:19:52.963Z,21.50
2018-05-24T18:22:21.621Z,21.40
2018-05-24T18:24:50.356Z,21.40
2018-05-24T18:27:18.261Z,21.40
2018-05-24T18:29:45.945Z,21.40
2018-05-24T18:32:13.607Z,21.40
2018-05-24T18:34:42.109Z,21.40
2018-05-24T18:37:09.758Z,21.40
2018-05-24T18:39:37.354Z,21.40
2018-05-24T18:42:05.093Z,21.40
2018-05-24T18:44:33.112Z,21.40
2018-05-24T18:47:00.832Z,21.40
2018-05-24T18:49:28.472Z,21.40
2018-05-24T18:51:56.271Z,21.30
2018-05-24T18:54:23.961Z,21.30
2018-05-24T19:02:37.973Z,21.30
2018-05-24T19:05:05.804Z,21.30
2018-05-24T19:10:26.270Z,21.30
2018-05-24T19:12:54.108Z,21.30
2018-05-24T19:15:21.907Z,21.20
2018-05-24T19:17:49.645Z,21.30
2018-05-24T19:20:18.978Z,21.20
2018-05-24T19:22:46.740Z,21.20
2018-05-24T19:25:14.437Z,21.20
2018-05-24T19:27:42.063Z,21.20
2018-05-24T19:30:09.598Z,20.90
2018-05-24T19:32:37.171Z,20.70
2018-05-24T19:35:05.780Z,20.40
2018-05-24T19:37:33.382Z,20.20
2018-05-24T19:40:00.966Z,20.00
2018-05-24T19:42:29.712Z,19.90
2018-05-24T19:44:58.485Z,19.80
2018-05-24T19:47:26.312Z,19.40
2018-05-24T19:49:54.832Z,19.10
2018-05-24T19:52:23.325Z,18.70
2018-05-24T19:54:51.839Z,18.60
2018-05-24T19:57:19.469Z,18.40
2018-05-24T19:59:47.107Z,18.40
2018-05-24T20:02:14.810Z,18.20
2018-05-24T20:04:42.702Z,18.20
2018-05-24T20:07:10.541Z,18.10
2018-05-24T20:09:38.159Z,18.10
2018-05-24T20:12:05.737Z,18.10
2018-05-24T20:14:33.552Z,18.10
2018-05-24T20:17:04.797Z,18.00
2018-05-24T20:19:32.508Z,18.00
2018-05-24T20:22:00.115Z,17.90
2018-05-24T20:24:28.808Z,17.80
2018-05-24T20:26:58.854Z,17.80
2018-05-24T20:29:26.477Z,17.80
2018-05-24T20:31:54.076Z,17.80
2018-05-24T20:34:21.674Z,17.80
2018-05-24T20:36:49.328Z,17.70
2018-05-24T20:39:17.112Z,17.70
2018-05-24T20:41:44.804Z,17.60
2018-05-24T20:44:13.235Z,17.60
2018-05-24T20:46:41.018Z,17.40
2018-05-24T20:49:08.605Z,17.50
2018-05-24T20:51:36.413Z,17.50
2018-05-24T20:54:04.074Z,17.50
2018-05-24T20:56:31.965Z,17.60
2018-05-24T20:58:59.685Z,17.60
2018-05-24T21:01:27.497Z,17.50
2018-05-24T21:03:55.176Z,17.30
2018-05-24T21:06:22.749Z,17.10
2018-05-24T21:08:50.419Z,17.10
2018-05-24T21:11:18.113Z,16.90
2018-05-24T21:13:45.753Z,17.00
2018-05-24T21:16:13.407Z,16.80
2018-05-24T21:18:42.544Z,17.00
2018-05-24T21:21:10.242Z,17.10
2018-05-24T21:23:37.784Z,17.00
2018-05-24T21:26:09.560Z,16.90
2018-05-24T21:28:37.374Z,16.80
2018-05-24T21:31:05.085Z,16.90
2018-05-24T21:33:32.741Z,16.80
2018-05-24T21:36:00.275Z,16.90
2018-05-24T21:38:28.845Z,17.00
2018-05-24T21:41:02.425Z,17.00
2018-05-24T21:43:30.111Z,17.00
2018-05-24T21:45:57.758Z,17.00
2018-05-24T21:48:25.407Z,17.10
2018-05-24T21:50:54.402Z,17.10
2018-05-24T21:53:21.990Z,17.10
2018-05-24T21:55:49.574Z,17.10
2018-05-24T21:58:17.339Z,17.20
2018-05-24T22:00:51.268Z,17.20
2018-05-24T22:03:19.003Z,17.30
2018-05-24T22:05:46.586Z,17.30
2018-05-24T22:08:14.576Z,17.30
2018-05-24T22:10:42.672Z,17.30
2018-05-24T22:13:10.199Z,17.30
2018-05-24T22:15:37.994Z,17.30
2018-05-24T22:18:05.695Z,17.30
2018-05-24T22:20:33.310Z,17.40
2018-05-24T22:23:02.493Z,17.40
2018-05-24T22:25:30.035Z,17.30
2018-05-24T22:27:57.772Z,17.30
2018-05-24T22:30:25.427Z,17.20
2018-05-24T22:32:53.489Z,17.30
2018-05-24T22:35:21.098Z,17.20
2018-05-24T22:37:49.542Z,17.20
2018-05-24T22:40:17.261Z,17.10
2018-05-24T22:42:44.806Z,17.00
2018-05-24T22:45:12.980Z,16.90
2018-05-24T22:47:40.889Z,16.90
2018-05-24T22:50:09.309Z,16.90
2018-05-24T22:52:37.058Z,16.90
2018-05-24T22:55:04.750Z,16.90
2018-05-24T22:57:32.723Z,16.90
2018-05-24T23:00:00.311Z,16.80
2018-05-24T23:02:27.831Z,16.80
2018-05-24T23:04:55.418Z,16.80
2018-05-24T23:07:22.978Z,16.80
2018-05-24T23:09:50.478Z,16.90
2018-05-24T23:12:18.082Z,16.70
2018-05-24T23:14:45.608Z,16.70
2018-05-24T23:17:13.200Z,16.70
2018-05-24T23:19:40.889Z,16.70
2018-05-24T23:22:08.474Z,16.70
2018-05-24T23:24:36.046Z,16.60
2018-05-24T23:27:03.623Z,16.70
2018-05-24T23:29:31.203Z,16.60
2018-05-24T23:31:58.856Z,16.50
2018-05-24T23:34:26.448Z,16.50
2018-05-24T23:36:54.320Z,16.40
2018-05-24T23:39:21.882Z,16.40
2018-05-24T23:41:49.402Z,16.40
2018-05-24T23:44:17.009Z,16.30
2018-05-24T23:46:44.627Z,16.30
2018-05-24T23:49:12.218Z,16.30
2018-05-24T23:51:39.807Z,16.30
2018-05-24T23:54:07.357Z,16.20
2018-05-24T23:56:34.930Z,16.20
2018-05-24T23:59:02.881Z,16.10
